Time;durP1;ratioP1;P1;durP2;ratioP2;P2;SDS_P1;SDS_P2;PMS_P1;PMS_P2;Temp;Humidity;BMP_temperature;BMP_pressure;BME280_temperature;BME280_humidity;BME280_pressure;Samples;Min_cycle;Max_cycle;Signal;HPM_P1;HPM_P2
2024/03/09 00:01:58;;;;;;;;;;;6.50;1.00;;;;;;5071985;22;19932;-85
2024/03/09 00:04:23;;;;;;;;;;;6.50;1.00;;;;;;5047782;28;20355;-87
2024/03/09 00:06:49;;;;;;;;;;;6.50;1.00;;;;;;5042239;28;19909;-87
2024/03/09 00:09:14;;;;;;;;;;;6.40;1.00;;;;;;5039660;28;19914;-87
2024/03/09 00:11:40;;;;;;;;;;;6.40;1.00;;;;;;5034686;28;19910;-86
2024/03/09 00:14:06;;;;;;;;;;;6.40;1.00;;;;;;5025385;28;19913;-86
2024/03/09 00:16:32;;;;;;;;;;;6.40;1.00;;;;;;5025758;28;19965;-83
2024/03/09 00:18:57;;;;;;;;;;;6.40;1.00;;;;;;5025969;28;20474;-86
2024/03/09 00:21:23;;;;;;;;;;;6.30;1.00;;;;;;5033412;28;19935;-87
2024/03/09 00:23:50;;;;;;;;;;;6.30;1.00;;;;;;5036451;28;19909;-85
2024/03/09 00:26:16;;;;;;;;;;;6.30;1.00;;;;;;5034475;28;19956;-86
2024/03/09 00:28:42;;;;;;;;;;;6.30;1.00;;;;;;5030993;28;19916;-87
2024/03/09 00:31:08;;;;;;;;;;;6.20;1.00;;;;;;5025205;28;19918;-86
2024/03/09 00:33:33;;;;;;;;;;;6.20;1.00;;;;;;5033276;28;19909;-87
2024/03/09 00:35:59;;;;;;;;;;;6.20;1.00;;;;;;5033178;28;19947;-86
2024/03/09 00:38:24;;;;;;;;;;;6.20;1.00;;;;;;5039318;28;19913;-85
2024/03/09 00:40:50;;;;;;;;;;;6.30;1.00;;;;;;5035410;28;19932;-86
2024/03/09 00:43:15;;;;;;;;;;;6.20;1.00;;;;;;5040846;28;20397;-86
2024/03/09 00:45:41;;;;;;;;;;;6.30;1.00;;;;;;5036722;28;20008;-87
2024/03/09 00:48:07;;;;;;;;;;;6.20;1.00;;;;;;5033374;28;19964;-86
2024/03/09 00:50:33;;;;;;;;;;;6.30;1.00;;;;;;5033381;28;19909;-86
2024/03/09 00:52:58;;;;;;;;;;;6.30;1.00;;;;;;5034610;28;19913;-87
2024/03/09 00:55:24;;;;;;;;;;;6.30;1.00;;;;;;5027232;28;19917;-86
2024/03/09 00:57:50;;;;;;;;;;;6.30;1.00;;;;;;5028694;28;19914;-86
2024/03/09 01:00:16;;;;;;;;;;;6.30;1.00;;;;;;5017382;28;19909;-86
2024/03/09 01:02:43;;;;;;;;;;;6.30;1.00;;;;;;5022205;28;20568;-86
2024/03/09 01:05:09;;;;;;;;;;;6.30;1.00;;;;;;5030786;28;19917;-85
2024/03/09 01:07:35;;;;;;;;;;;6.40;1.00;;;;;;5023329;28;19944;-86
2024/03/09 01:10:00;;;;;;;;;;;6.30;1.00;;;;;;5032656;28;19913;-86
2024/03/09 01:12:28;;;;;;;;;;;6.40;1.00;;;;;;5024677;28;20071;-86
2024/03/09 01:14:54;;;;;;;;;;;6.30;1.00;;;;;;5025800;28;19953;-87
2024/03/09 01:17:23;;;;;;;;;;;6.30;1.00;;;;;;5026711;28;19965;-86
2024/03/09 01:19:50;;;;;;;;;;;6.30;1.00;;;;;;5028187;28;19952;-86
2024/03/09 01:22:17;;;;;;;;;;;6.30;1.00;;;;;;5033933;28;19913;-87
2024/03/09 01:24:43;;;;;;;;;;;6.20;1.00;;;;;;5038969;28;20319;-86
2024/03/09 01:27:08;;;;;;;;;;;6.20;1.00;;;;;;5037440;28;19913;-87
2024/03/09 01:29:34;;;;;;;;;;;6.10;1.00;;;;;;5041532;28;19953;-87
2024/03/09 01:32:05;;;;;;;;;;;6.10;1.00;;;;;;5041884;28;19909;-86
2024/03/09 01:34:31;;;;;;;;;;;6.10;1.00;;;;;;5033175;28;19968;-87
2024/03/09 01:36:57;;;;;;;;;;;6.10;1.00;;;;;;5041871;28;19994;-86
2024/03/09 01:39:23;;;;;;;;;;;6.10;1.00;;;;;;5041034;28;19932;-87
2024/03/09 01:41:50;;;;;;;;;;;6.10;1.00;;;;;;5039489;28;19913;-84
2024/03/09 01:44:16;;;;;;;;;;;6.10;7.90;;;;;;5041266;28;19948;-87
2024/03/09 01:46:41;;;;;;;;;;;6.20;4.60;;;;;;5043018;28;19932;-87
2024/03/09 01:49:07;;;;;;;;;;;6.20;4.70;;;;;;5042518;28;19974;-86
2024/03/09 01:51:32;;;;;;;;;;;6.20;1.70;;;;;;5044000;28;19909;-87
2024/03/09 01:53:58;;;;;;;;;;;6.20;1.00;;;;;;5043258;28;19909;-87
2024/03/09 01:56:27;;;;;;;;;;;6.20;1.00;;;;;;5042217;28;19971;-87
2024/03/09 01:58:53;;;;;;;;;;;6.20;1.00;;;;;;5042280;28;19909;-87
2024/03/09 02:01:28;;;;;;;;;;;6.30;1.00;;;;;;5045160;28;19925;-87
2024/03/09 02:03:54;;;;;;;;;;;6.30;1.00;;;;;;5042893;28;19913;-86
2024/03/09 02:06:21;;;;;;;;;;;6.30;1.00;;;;;;5029495;28;20386;-85
2024/03/09 02:08:47;;;;;;;;;;;6.30;1.00;;;;;;5033007;28;19975;-85
2024/03/09 02:11:12;;;;;;;;;;;6.30;4.90;;;;;;5027800;28;20261;-86
2024/03/09 02:13:38;;;;;;;;;;;6.30;5.60;;;;;;5034974;28;19956;-87
2024/03/09 02:16:04;;;;;;;;;;;6.30;4.20;;;;;;5031988;28;19917;-86
2024/03/09 02:18:29;;;;;;;;;;;6.30;11.00;;;;;;5027841;28;19960;-87
2024/03/09 02:20:56;;;;;;;;;;;6.30;1.00;;;;;;5030906;28;20022;-86
2024/03/09 02:23:26;;;;;;;;;;;6.30;1.00;;;;;;5028364;28;19921;-86
2024/03/09 02:25:51;;;;;;;;;;;6.30;1.00;;;;;;5035499;28;19917;-84
2024/03/09 02:28:18;;;;;;;;;;;6.40;1.00;;;;;;5032859;28;20384;-86
2024/03/09 02:30:44;;;;;;;;;;;6.40;1.00;;;;;;5028889;28;19913;-87
2024/03/09 02:33:09;;;;;;;;;;;6.40;1.00;;;;;;5036495;28;19935;-86
2024/03/09 02:35:35;;;;;;;;;;;6.40;1.00;;;;;;5031558;28;20411;-86
2024/03/09 02:38:00;;;;;;;;;;;6.40;1.00;;;;;;5030941;28;19913;-86
2024/03/09 02:40:26;;;;;;;;;;;6.50;1.00;;;;;;5034685;28;19940;-86
2024/03/09 02:43:05;;;;;;;;;;;6.50;1.00;;;;;;5038550;28;19963;-86
2024/03/09 02:45:32;;;;;;;;;;;6.50;1.00;;;;;;5022419;28;19917;-86
2024/03/09 02:47:58;;;;;;;;;;;6.50;1.00;;;;;;5032979;28;19914;-87
2024/03/09 02:50:24;;;;;;;;;;;6.50;1.00;;;;;;5023810;28;19971;-86
2024/03/09 02:52:55;;;;;;;;;;;6.50;1.00;;;;;;5039892;28;19921;-86
2024/03/09 02:55:21;;;;;;;;;;;6.50;1.00;;;;;;5023270;28;20004;-85
2024/03/09 02:57:47;;;;;;;;;;;6.50;1.00;;;;;;5022331;28;19919;-87
2024/03/09 03:00:13;;;;;;;;;;;6.50;1.00;;;;;;5027057;28;19917;-85
2024/03/09 03:05:26;;;;;;;;;;;6.40;32.40;;;;;;5041883;28;19923;-84
2024/03/09 03:07:52;;;;;;;;;;;6.40;53.70;;;;;;5042372;28;19920;-85
2024/03/09 03:10:17;;;;;;;;;;;6.30;78.40;;;;;;5033629;28;19917;-85
2024/03/09 03:12:44;;;;;;;;;;;6.30;99.90;;;;;;5041745;28;20006;-85
2024/03/09 03:15:11;;;;;;;;;;;6.30;99.90;;;;;;5035513;28;19944;-84
2024/03/09 03:17:37;;;;;;;;;;;6.30;99.90;;;;;;5036788;28;19980;-85
2024/03/09 03:20:06;;;;;;;;;;;6.30;99.90;;;;;;5033479;28;19941;-84
2024/03/09 03:22:32;;;;;;;;;;;6.30;99.90;;;;;;5021578;28;19929;-84
2024/03/09 03:24:57;;;;;;;;;;;6.30;99.90;;;;;;5025553;28;19917;-85
2024/03/09 03:27:23;;;;;;;;;;;6.30;99.90;;;;;;5024279;28;19918;-84
2024/03/09 03:29:51;;;;;;;;;;;6.30;99.90;;;;;;5035186;28;19913;-84
2024/03/09 03:32:16;;;;;;;;;;;6.30;99.90;;;;;;5030398;28;20000;-84
2024/03/09 03:34:43;;;;;;;;;;;6.30;99.90;;;;;;5037427;28;20438;-83
2024/03/09 03:37:08;;;;;;;;;;;6.30;99.90;;;;;;5038563;28;20379;-84
2024/03/09 03:39:34;;;;;;;;;;;6.30;99.90;;;;;;5038464;28;19916;-84
2024/03/09 03:42:00;;;;;;;;;;;6.30;99.90;;;;;;5037932;28;19909;-84
2024/03/09 03:44:29;;;;;;;;;;;6.30;99.90;;;;;;5038134;28;19909;-84
2024/03/09 03:46:55;;;;;;;;;;;6.20;99.90;;;;;;5036609;28;19956;-84
2024/03/09 03:49:22;;;;;;;;;;;6.20;99.90;;;;;;5034010;28;19910;-84
2024/03/09 03:51:47;;;;;;;;;;;6.30;99.90;;;;;;5038305;28;19920;-83
2024/03/09 03:54:13;;;;;;;;;;;6.30;99.90;;;;;;5038551;28;19909;-84
2024/03/09 03:56:39;;;;;;;;;;;6.30;99.90;;;;;;5037645;28;19913;-85
2024/03/09 03:59:04;;;;;;;;;;;6.30;99.90;;;;;;5036899;28;19909;-86
2024/03/09 04:01:31;;;;;;;;;;;6.30;99.90;;;;;;5037436;28;19924;-85
2024/03/09 04:03:56;;;;;;;;;;;6.30;99.90;;;;;;5036664;28;19943;-84
2024/03/09 04:06:22;;;;;;;;;;;6.30;99.90;;;;;;5028448;28;19917;-84
2024/03/09 04:08:47;;;;;;;;;;;6.30;99.90;;;;;;5029560;28;19923;-84
2024/03/09 04:11:14;;;;;;;;;;;6.30;99.90;;;;;;5038006;28;19913;-84
2024/03/09 04:13:39;;;;;;;;;;;6.30;99.90;;;;;;5032577;28;19921;-85
2024/03/09 04:16:05;;;;;;;;;;;6.30;99.90;;;;;;5032877;28;19936;-84
2024/03/09 04:18:31;;;;;;;;;;;6.30;99.90;;;;;;5034460;28;19935;-85
2024/03/09 04:21:03;;;;;;;;;;;6.40;74.60;;;;;;5033274;28;19913;-85
2024/03/09 04:23:29;;;;;;;;;;;6.40;57.20;;;;;;5040385;28;19976;-85
2024/03/09 04:25:55;;;;;;;;;;;6.40;44.70;;;;;;5036424;28;19937;-85
2024/03/09 04:28:21;;;;;;;;;;;6.40;59.90;;;;;;5031516;28;20287;-85
2024/03/09 04:30:48;;;;;;;;;;;6.40;67.20;;;;;;5028943;28;19933;-86
2024/03/09 04:33:15;;;;;;;;;;;6.40;70.00;;;;;;5033886;28;19914;-85
2024/03/09 04:35:47;;;;;;;;;;;6.40;48.70;;;;;;5026858;28;19925;-85
2024/03/09 04:38:16;;;;;;;;;;;6.40;66.50;;;;;;5026446;28;19964;-84
2024/03/09 04:40:48;;;;;;;;;;;6.50;93.40;;;;;;5025794;28;19913;-85
2024/03/09 04:43:14;;;;;;;;;;;6.50;80.60;;;;;;5027684;28;19947;-85
2024/03/09 04:45:40;;;;;;;;;;;6.50;85.10;;;;;;5029735;28;19913;-85
2024/03/09 04:48:06;;;;;;;;;;;6.50;99.90;;;;;;5028874;28;20375;-83
2024/03/09 04:50:33;;;;;;;;;;;6.50;99.90;;;;;;5035258;28;19917;-85
2024/03/09 04:52:59;;;;;;;;;;;6.50;99.90;;;;;;5037341;28;19913;-85
2024/03/09 04:55:35;;;;;;;;;;;6.50;99.90;;;;;;5029040;28;19920;-85
2024/03/09 04:58:01;;;;;;;;;;;6.40;99.90;;;;;;5028909;28;19920;-85
2024/03/09 05:00:28;;;;;;;;;;;6.40;99.90;;;;;;5033311;28;20008;-86
2024/03/09 05:02:54;;;;;;;;;;;6.40;99.90;;;;;;5026595;28;20394;-84
2024/03/09 05:05:20;;;;;;;;;;;6.40;1.00;;;;;;5032982;28;20008;-86
2024/03/09 05:07:46;;;;;;;;;;;6.30;1.00;;;;;;5030309;28;19916;-84
2024/03/09 05:10:17;;;;;;;;;;;6.30;1.00;;;;;;5026760;28;19914;-87
2024/03/09 05:12:50;;;;;;;;;;;6.30;1.00;;;;;;5031468;28;19952;-84
2024/03/09 05:15:15;;;;;;;;;;;6.20;1.00;;;;;;5024586;28;19914;-85
2024/03/09 05:17:41;;;;;;;;;;;6.20;1.00;;;;;;5032282;28;19924;-85
2024/03/09 05:20:20;;;;;;;;;;;6.20;1.00;;;;;;5033940;28;19925;-83
2024/03/09 05:22:46;;;;;;;;;;;6.20;1.00;;;;;;5027733;28;19910;-86
2024/03/09 05:25:12;;;;;;;;;;;6.20;1.00;;;;;;5034423;28;19921;-86
2024/03/09 05:27:42;;;;;;;;;;;6.20;1.00;;;;;;5034200;28;19951;-86
2024/03/09 05:30:14;;;;;;;;;;;6.20;1.00;;;;;;5029742;28;20816;-86
2024/03/09 05:32:41;;;;;;;;;;;6.20;1.00;;;;;;5028943;28;19913;-87
2024/03/09 05:35:06;;;;;;;;;;;6.20;1.00;;;;;;5030943;28;19937;-87
2024/03/09 05:37:32;;;;;;;;;;;6.20;1.00;;;;;;5034393;28;20382;-87
2024/03/09 05:39:57;;;;;;;;;;;6.20;99.90;;;;;;5025655;28;19920;-86
2024/03/09 05:42:23;;;;;;;;;;;6.20;99.90;;;;;;5041190;28;19936;-87
2024/03/09 05:44:48;;;;;;;;;;;6.20;99.90;;;;;;5041725;28;19967;-86
2024/03/09 05:47:14;;;;;;;;;;;6.20;99.90;;;;;;5040757;28;19910;-87
2024/03/09 05:49:39;;;;;;;;;;;6.20;99.90;;;;;;5040800;28;20333;-87
2024/03/09 05:52:05;;;;;;;;;;;6.20;99.90;;;;;;5037021;28;19909;-87
2024/03/09 05:54:33;;;;;;;;;;;6.10;99.90;;;;;;5035604;28;19932;-87
2024/03/09 05:56:59;;;;;;;;;;;6.10;99.90;;;;;;5036369;28;19914;-86
2024/03/09 05:59:26;;;;;;;;;;;6.10;1.00;;;;;;5036441;28;20444;-86
2024/03/09 06:01:51;;;;;;;;;;;6.10;99.90;;;;;;5059047;23;19925;-85
2024/03/09 06:04:17;;;;;;;;;;;6.00;99.90;;;;;;5036720;28;20290;-85
2024/03/09 06:06:42;;;;;;;;;;;6.00;99.90;;;;;;5043155;28;19910;-85
2024/03/09 06:09:08;;;;;;;;;;;6.00;99.90;;;;;;5033200;28;20394;-85
2024/03/09 06:11:34;;;;;;;;;;;6.00;99.90;;;;;;5041205;28;19913;-85
2024/03/09 06:14:00;;;;;;;;;;;6.00;99.90;;;;;;5027630;28;19914;-85
2024/03/09 06:16:25;;;;;;;;;;;6.00;99.90;;;;;;5029061;28;20395;-84
2024/03/09 06:18:52;;;;;;;;;;;6.00;99.90;;;;;;5018415;28;19925;-84
2024/03/09 06:21:17;;;;;;;;;;;6.00;99.90;;;;;;5028340;28;19932;-85
2024/03/09 06:23:46;;;;;;;;;;;6.00;99.90;;;;;;5030581;28;20321;-85
2024/03/09 06:26:11;;;;;;;;;;;6.00;99.90;;;;;;5032035;28;19916;-85
2024/03/09 06:28:40;;;;;;;;;;;6.00;99.90;;;;;;5035620;28;19910;-85
2024/03/09 06:31:08;;;;;;;;;;;6.10;99.90;;;;;;5040360;28;19913;-85
2024/03/09 06:33:34;;;;;;;;;;;6.10;99.90;;;;;;5035840;28;20391;-85
2024/03/09 06:36:04;;;;;;;;;;;6.20;99.90;;;;;;5035872;28;19920;-86
2024/03/09 06:38:32;;;;;;;;;;;6.30;99.90;;;;;;5037431;28;19963;-84
2024/03/09 06:40:57;;;;;;;;;;;6.40;99.90;;;;;;5027534;28;19917;-86
2024/03/09 06:43:22;;;;;;;;;;;6.50;99.90;;;;;;5028790;28;19927;-84
2024/03/09 06:45:50;;;;;;;;;;;6.60;99.90;;;;;;5037161;28;19945;-85
2024/03/09 06:48:16;;;;;;;;;;;6.70;97.40;;;;;;5038362;28;19909;-85
2024/03/09 06:50:44;;;;;;;;;;;7.40;28.40;;;;;;5035723;28;19941;-84
2024/03/09 06:53:10;;;;;;;;;;;8.50;1.00;;;;;;5028471;28;20433;-85
2024/03/09 06:55:36;;;;;;;;;;;9.40;1.00;;;;;;5034903;28;19935;-85
2024/03/09 06:58:01;;;;;;;;;;;10.70;99.90;;;;;;5035751;28;19917;-83
2024/03/09 07:00:29;;;;;;;;;;;12.90;99.90;;;;;;5044284;28;19910;-84
2024/03/09 07:02:58;;;;;;;;;;;15.20;99.90;;;;;;5038489;28;19928;-84
2024/03/09 07:05:27;;;;;;;;;;;17.30;99.90;;;;;;5028593;28;19987;-84
2024/03/09 07:07:54;;;;;;;;;;;19.10;99.90;;;;;;5026349;28;19941;-84
2024/03/09 07:10:19;;;;;;;;;;;20.40;99.90;;;;;;5038030;28;19914;-84
2024/03/09 07:12:45;;;;;;;;;;;21.30;99.90;;;;;;5030220;28;19913;-85
2024/03/09 07:15:16;;;;;;;;;;;21.80;99.90;;;;;;5029097;28;19909;-85
2024/03/09 07:17:43;;;;;;;;;;;22.30;99.90;;;;;;5026636;28;19917;-83
2024/03/09 07:20:12;;;;;;;;;;;22.80;99.90;;;;;;5032204;28;19928;-85
2024/03/09 07:22:39;;;;;;;;;;;23.30;99.90;;;;;;5032131;28;19913;-85
2024/03/09 07:25:05;;;;;;;;;;;23.60;99.90;;;;;;5028481;28;20391;-85
2024/03/09 07:27:30;;;;;;;;;;;24.00;99.90;;;;;;5025768;28;19922;-85
2024/03/09 07:29:57;;;;;;;;;;;24.70;99.90;;;;;;5034882;28;19909;-85
2024/03/09 07:32:22;;;;;;;;;;;24.80;99.90;;;;;;5035268;28;19910;-85
2024/03/09 07:34:48;;;;;;;;;;;24.80;99.90;;;;;;5036122;28;19910;-86
2024/03/09 07:37:13;;;;;;;;;;;25.00;99.90;;;;;;5033489;28;19917;-84
2024/03/09 07:39:39;;;;;;;;;;;25.20;99.90;;;;;;5038787;28;19920;-84
2024/03/09 07:42:05;;;;;;;;;;;25.00;99.90;;;;;;5039120;28;19914;-84
2024/03/09 07:44:31;;;;;;;;;;;25.00;99.90;;;;;;5038591;28;20403;-85
2024/03/09 07:46:56;;;;;;;;;;;25.20;99.90;;;;;;5032520;28;20381;-85
2024/03/09 07:49:22;;;;;;;;;;;25.60;99.90;;;;;;5023798;28;20013;-85
2024/03/09 07:51:48;;;;;;;;;;;25.80;99.90;;;;;;5029141;28;20307;-85
2024/03/09 07:54:13;;;;;;;;;;;26.00;99.90;;;;;;5034750;28;19921;-84
2024/03/09 07:56:39;;;;;;;;;;;26.40;99.90;;;;;;5026421;28;19948;-84
2024/03/09 07:59:07;;;;;;;;;;;26.80;99.90;;;;;;5028462;28;19991;-84
2024/03/09 08:01:32;;;;;;;;;;;27.30;99.90;;;;;;5026044;28;19917;-85
2024/03/09 08:03:58;;;;;;;;;;;27.60;99.90;;;;;;5025602;28;20614;-85
2024/03/09 08:06:23;;;;;;;;;;;27.40;99.90;;;;;;5020306;28;19917;-85
2024/03/09 08:08:49;;;;;;;;;;;27.40;99.90;;;;;;5016021;28;19913;-85
2024/03/09 08:11:16;;;;;;;;;;;27.50;99.90;;;;;;5028341;28;19920;-85
2024/03/09 08:13:43;;;;;;;;;;;27.80;99.90;;;;;;5029869;28;20306;-87
2024/03/09 08:16:09;;;;;;;;;;;27.80;99.90;;;;;;5027530;28;20017;-85
2024/03/09 08:18:36;;;;;;;;;;;27.80;99.90;;;;;;5026600;28;19918;-85
2024/03/09 08:21:02;;;;;;;;;;;28.40;99.90;;;;;;5023191;28;19948;-85
2024/03/09 08:23:28;;;;;;;;;;;29.20;99.90;;;;;;5031220;28;19928;-84
2024/03/09 08:25:53;;;;;;;;;;;29.70;99.90;;;;;;5022188;28;19918;-85
2024/03/09 08:28:20;;;;;;;;;;;29.90;99.90;;;;;;5037109;28;20330;-85
2024/03/09 08:30:47;;;;;;;;;;;27.10;99.90;;;;;;5025722;28;19968;-84
2024/03/09 08:33:12;;;;;;;;;;;23.40;99.90;;;;;;5036693;28;19913;-83
2024/03/09 08:35:38;;;;;;;;;;;21.10;99.90;;;;;;5027265;28;19964;-84
2024/03/09 08:38:04;;;;;;;;;;;19.30;99.90;;;;;;5029678;28;19927;-84
2024/03/09 08:40:30;;;;;;;;;;;17.80;99.90;;;;;;5037985;28;19920;-83
2024/03/09 08:42:58;;;;;;;;;;;16.50;99.90;;;;;;5029387;28;19913;-84
2024/03/09 08:45:27;;;;;;;;;;;15.80;99.90;;;;;;5037428;28;19917;-84
2024/03/09 08:47:53;;;;;;;;;;;15.60;99.90;;;;;;5027465;28;19918;-82
2024/03/09 08:50:22;;;;;;;;;;;15.70;99.90;;;;;;5040744;28;19960;-84
2024/03/09 08:52:48;;;;;;;;;;;15.70;99.90;;;;;;5038899;28;19924;-84
2024/03/09 08:55:14;;;;;;;;;;;15.60;99.90;;;;;;5031594;28;20012;-84
2024/03/09 08:57:40;;;;;;;;;;;16.70;99.90;;;;;;5031621;28;19913;-84
2024/03/09 09:00:07;;;;;;;;;;;16.80;99.90;;;;;;5032174;28;20865;-83
2024/03/09 09:02:34;;;;;;;;;;;17.80;99.90;;;;;;5031342;28;19984;-84
2024/03/09 09:04:59;;;;;;;;;;;21.00;99.90;;;;;;5037162;28;19985;-84
2024/03/09 09:07:25;;;;;;;;;;;22.80;99.90;;;;;;5031183;28;19921;-85
2024/03/09 09:09:50;;;;;;;;;;;25.10;99.90;;;;;;5031424;28;20407;-84
2024/03/09 09:12:19;;;;;;;;;;;25.00;99.90;;;;;;5036258;28;20335;-84
2024/03/09 09:14:45;;;;;;;;;;;24.60;99.90;;;;;;5040197;28;20000;-84
2024/03/09 09:17:11;;;;;;;;;;;23.20;99.90;;;;;;5029862;28;19956;-83
2024/03/09 09:19:37;;;;;;;;;;;23.10;99.90;;;;;;5030953;28;19920;-84
2024/03/09 09:22:03;;;;;;;;;;;25.10;99.90;;;;;;5025381;28;20390;-84
2024/03/09 09:24:29;;;;;;;;;;;26.00;99.90;;;;;;5025513;28;19910;-83
2024/03/09 09:26:58;;;;;;;;;;;26.50;99.90;;;;;;5030919;28;19920;-84
2024/03/09 09:29:28;;;;;;;;;;;25.30;99.90;;;;;;5036018;28;20323;-83
2024/03/09 09:32:04;;;;;;;;;;;24.70;99.90;;;;;;5034391;28;19924;-84
2024/03/09 09:34:30;;;;;;;;;;;25.50;99.90;;;;;;5030236;28;20354;-83
2024/03/09 09:36:56;;;;;;;;;;;26.10;99.90;;;;;;5036734;28;19980;-84
2024/03/09 09:39:25;;;;;;;;;;;26.60;99.90;;;;;;5041842;28;19916;-84
2024/03/09 09:41:57;;;;;;;;;;;26.10;99.90;;;;;;5042009;28;20287;-85
2024/03/09 09:44:26;;;;;;;;;;;25.20;99.90;;;;;;5036972;28;19918;-83
2024/03/09 09:46:52;;;;;;;;;;;23.70;99.90;;;;;;5037613;28;19917;-83
2024/03/09 09:49:18;;;;;;;;;;;24.20;99.90;;;;;;5030960;28;20423;-84
2024/03/09 09:51:45;;;;;;;;;;;24.00;99.90;;;;;;5041595;28;19914;-84
2024/03/09 09:54:10;;;;;;;;;;;22.20;99.90;;;;;;5038381;28;19913;-83
2024/03/09 09:56:36;;;;;;;;;;;20.30;99.90;;;;;;5036238;28;19984;-84
2024/03/09 09:59:02;;;;;;;;;;;19.20;99.90;;;;;;5032380;28;19996;-84
2024/03/09 10:01:27;;;;;;;;;;;18.20;99.90;;;;;;5039944;28;19913;-83
2024/03/09 10:03:52;;;;;;;;;;;17.10;99.90;;;;;;5040273;28;19924;-84
2024/03/09 10:06:20;;;;;;;;;;;16.40;99.90;;;;;;5030912;28;19935;-84
2024/03/09 10:08:53;;;;;;;;;;;15.70;99.90;;;;;;5032780;28;20433;-83
2024/03/09 10:11:20;;;;;;;;;;;15.40;99.90;;;;;;5032319;28;19936;-82
2024/03/09 10:13:46;;;;;;;;;;;15.30;99.90;;;;;;5030840;28;19937;-84
2024/03/09 10:16:15;;;;;;;;;;;15.10;99.90;;;;;;5037741;28;19921;-83
2024/03/09 10:18:41;;;;;;;;;;;15.00;99.90;;;;;;5034689;28;19920;-83
2024/03/09 10:21:08;;;;;;;;;;;14.80;99.90;;;;;;5039979;28;19921;-84
2024/03/09 10:23:34;;;;;;;;;;;14.80;99.90;;;;;;5041718;28;19935;-82
2024/03/09 10:26:07;;;;;;;;;;;15.40;99.90;;;;;;5043089;28;19920;-83
2024/03/09 10:28:36;;;;;;;;;;;16.50;99.90;;;;;;5041067;28;19913;-83
2024/03/09 10:31:06;;;;;;;;;;;17.80;99.90;;;;;;5033933;28;20306;-83
2024/03/09 10:33:34;;;;;;;;;;;18.60;99.90;;;;;;5029757;28;19915;-82
2024/03/09 10:36:00;;;;;;;;;;;18.90;99.90;;;;;;5033291;28;19920;-82
2024/03/09 10:38:28;;;;;;;;;;;18.50;99.90;;;;;;5032848;28;19909;-82
2024/03/09 10:40:57;;;;;;;;;;;18.70;99.90;;;;;;5027830;28;19920;-82
2024/03/09 10:43:23;;;;;;;;;;;18.50;99.90;;;;;;5033648;28;19917;-81
2024/03/09 10:45:54;;;;;;;;;;;18.00;99.90;;;;;;5035733;28;19936;-83
2024/03/09 10:48:20;;;;;;;;;;;17.50;99.90;;;;;;5034316;28;20351;-83
2024/03/09 10:50:54;;;;;;;;;;;16.90;99.90;;;;;;5043286;28;19909;-81
2024/03/09 10:53:37;;;;;;;;;;;16.60;99.90;;;;;;5040723;28;20302;-82
2024/03/09 10:56:15;;;;;;;;;;;16.30;99.90;;;;;;5031347;28;19913;-83
2024/03/09 10:58:41;;;;;;;;;;;16.10;99.90;;;;;;5037784;28;19909;-83
2024/03/09 11:01:08;;;;;;;;;;;15.90;99.90;;;;;;5039293;28;19909;-82
2024/03/09 11:03:35;;;;;;;;;;;15.90;99.90;;;;;;5039629;28;19924;-82
2024/03/09 11:06:00;;;;;;;;;;;15.80;99.90;;;;;;5039901;28;19905;-83
2024/03/09 11:08:26;;;;;;;;;;;15.70;99.90;;;;;;5035799;28;19905;-81
2024/03/09 11:10:52;;;;;;;;;;;15.80;99.90;;;;;;5038527;28;19921;-82
2024/03/09 11:13:18;;;;;;;;;;;16.10;99.90;;;;;;5038055;28;19905;-83
2024/03/09 11:15:49;;;;;;;;;;;17.60;99.90;;;;;;5038213;28;19913;-83
2024/03/09 11:18:15;;;;;;;;;;;19.40;99.90;;;;;;5027425;28;19965;-82
2024/03/09 11:20:59;;;;;;;;;;;21.30;99.90;;;;;;5032880;28;20310;-83
2024/03/09 11:23:25;;;;;;;;;;;22.40;99.90;;;;;;5033114;28;19916;-84
2024/03/09 11:25:57;;;;;;;;;;;23.30;99.90;;;;;;5025894;28;19913;-83
2024/03/09 11:28:29;;;;;;;;;;;23.30;99.90;;;;;;5029166;28;19948;-82
2024/03/09 11:31:07;;;;;;;;;;;22.50;99.90;;;;;;5029977;28;19909;-82
2024/03/09 11:33:34;;;;;;;;;;;21.20;99.90;;;;;;5037421;28;20421;-82
2024/03/09 11:35:59;;;;;;;;;;;20.20;99.90;;;;;;5029106;28;20267;-82
2024/03/09 11:38:27;;;;;;;;;;;19.70;99.90;;;;;;5034977;28;19928;-83
2024/03/09 11:40:53;;;;;;;;;;;19.50;99.90;;;;;;5036222;28;20120;-82
2024/03/09 11:43:19;;;;;;;;;;;19.70;99.90;;;;;;5033531;28;19954;-83
2024/03/09 11:45:45;;;;;;;;;;;20.20;99.90;;;;;;5040061;28;19996;-82
2024/03/09 11:48:11;;;;;;;;;;;20.80;99.90;;;;;;5030902;28;20043;-82
2024/03/09 11:50:40;;;;;;;;;;;21.50;99.90;;;;;;5038732;28;19909;-83
2024/03/09 11:53:08;;;;;;;;;;;22.50;99.90;;;;;;5039921;28;19916;-83
2024/03/09 11:55:38;;;;;;;;;;;23.10;99.90;;;;;;5041626;28;19972;-83
2024/03/09 11:58:07;;;;;;;;;;;23.40;99.90;;;;;;5040382;28;19917;-83
2024/03/09 12:00:34;;;;;;;;;;;23.20;99.90;;;;;;5039488;28;19999;-83
2024/03/09 12:02:59;;;;;;;;;;;22.90;99.90;;;;;;5038437;28;19913;-83
2024/03/09 12:05:27;;;;;;;;;;;23.10;99.90;;;;;;5035428;28;20180;-83
2024/03/09 12:07:53;;;;;;;;;;;23.20;99.90;;;;;;5028374;28;19917;-83
2024/03/09 12:10:19;;;;;;;;;;;23.50;99.90;;;;;;5036865;28;19909;-84
2024/03/09 12:12:45;;;;;;;;;;;23.20;99.90;;;;;;5032599;28;19909;-84
2024/03/09 12:15:11;;;;;;;;;;;23.60;99.90;;;;;;5035251;28;19928;-83
2024/03/09 12:17:38;;;;;;;;;;;24.00;99.90;;;;;;5019671;28;19916;-84
2024/03/09 12:20:05;;;;;;;;;;;23.80;99.90;;;;;;5021878;28;19948;-84
2024/03/09 12:22:31;;;;;;;;;;;22.40;99.90;;;;;;5035016;28;19905;-82
2024/03/09 12:24:57;;;;;;;;;;;21.70;99.90;;;;;;5030814;28;19909;-83
2024/03/09 12:27:24;;;;;;;;;;;22.00;99.90;;;;;;5035910;28;19960;-83
2024/03/09 12:29:50;;;;;;;;;;;21.80;99.90;;;;;;5019014;28;19955;-84
2024/03/09 12:32:15;;;;;;;;;;;21.40;99.90;;;;;;5032982;28;20372;-82
2024/03/09 12:34:41;;;;;;;;;;;21.30;99.90;;;;;;5020943;28;19906;-83
2024/03/09 12:37:07;;;;;;;;;;;21.70;99.90;;;;;;5031640;28;19913;-82
2024/03/09 12:39:32;;;;;;;;;;;21.90;99.90;;;;;;5027980;28;20005;-83
2024/03/09 12:42:01;;;;;;;;;;;22.10;99.90;;;;;;5029193;28;19905;-83
2024/03/09 12:44:33;;;;;;;;;;;22.20;99.90;;;;;;5015946;28;19905;-82
2024/03/09 12:46:59;;;;;;;;;;;22.10;99.90;;;;;;5015971;28;19905;-83
2024/03/09 12:49:24;;;;;;;;;;;21.80;99.90;;;;;;5025409;28;20386;-82
2024/03/09 12:51:50;;;;;;;;;;;22.00;99.90;;;;;;5033624;28;19915;-82
2024/03/09 12:54:16;;;;;;;;;;;22.10;99.90;;;;;;5036621;28;20375;-83
2024/03/09 12:56:47;;;;;;;;;;;22.10;99.90;;;;;;5017636;28;19916;-82
2024/03/09 12:59:26;;;;;;;;;;;22.20;99.90;;;;;;5026175;28;19909;-83
2024/03/09 13:01:51;;;;;;;;;;;22.20;99.90;;;;;;5025646;28;19973;-83
2024/03/09 13:04:18;;;;;;;;;;;22.20;99.90;;;;;;5029147;28;20359;-82
2024/03/09 13:06:44;;;;;;;;;;;22.10;99.90;;;;;;5031804;28;19963;-82
2024/03/09 13:09:16;;;;;;;;;;;22.10;99.90;;;;;;5022666;28;19914;-84
2024/03/09 13:11:42;;;;;;;;;;;22.10;99.90;;;;;;5026088;28;19905;-83
2024/03/09 13:14:07;;;;;;;;;;;22.10;99.90;;;;;;5020296;28;19980;-83
2024/03/09 13:16:33;;;;;;;;;;;22.30;99.90;;;;;;5019393;28;19921;-84
2024/03/09 13:18:59;;;;;;;;;;;22.10;99.90;;;;;;5020301;28;19987;-85
2024/03/09 13:21:25;;;;;;;;;;;21.60;99.90;;;;;;5028930;28;19911;-84
2024/03/09 13:23:58;;;;;;;;;;;21.10;99.90;;;;;;5043548;28;19916;-83
2024/03/09 13:26:24;;;;;;;;;;;21.30;99.90;;;;;;5033516;28;19913;-83
2024/03/09 13:28:49;;;;;;;;;;;21.50;99.90;;;;;;5030517;28;20317;-86
2024/03/09 13:31:16;;;;;;;;;;;21.60;99.90;;;;;;5038090;28;19956;-84
2024/03/09 13:33:42;;;;;;;;;;;21.60;99.90;;;;;;5031121;28;19949;-84
2024/03/09 13:36:12;;;;;;;;;;;21.60;99.90;;;;;;5022219;28;19909;-83
2024/03/09 13:38:41;;;;;;;;;;;21.30;99.90;;;;;;5017758;28;19909;-83
2024/03/09 13:41:09;;;;;;;;;;;20.90;99.90;;;;;;5017640;28;20736;-83
2024/03/09 13:43:38;;;;;;;;;;;20.60;99.90;;;;;;5017852;28;19905;-83
2024/03/09 13:46:05;;;;;;;;;;;20.60;99.90;;;;;;5018970;28;19949;-84
2024/03/09 13:48:31;;;;;;;;;;;20.60;99.90;;;;;;5025862;28;20382;-85
2024/03/09 13:50:57;;;;;;;;;;;20.70;99.90;;;;;;5021836;28;19948;-84
2024/03/09 13:53:23;;;;;;;;;;;20.70;99.90;;;;;;5020542;28;19968;-83
2024/03/09 13:55:48;;;;;;;;;;;20.70;99.90;;;;;;5016355;28;19914;-84
2024/03/09 13:58:18;;;;;;;;;;;20.80;99.90;;;;;;5025581;28;19914;-82
2024/03/09 14:00:44;;;;;;;;;;;20.90;99.90;;;;;;5020133;28;19994;-84
2024/03/09 14:03:10;;;;;;;;;;;21.10;99.90;;;;;;5016949;28;20188;-83
2024/03/09 14:05:36;;;;;;;;;;;21.50;99.90;;;;;;5023703;28;19909;-83
2024/03/09 14:08:01;;;;;;;;;;;21.70;99.90;;;;;;5021201;28;20425;-82
2024/03/09 14:10:43;;;;;;;;;;;21.40;99.90;;;;;;5017688;28;19910;-85
2024/03/09 14:13:08;;;;;;;;;;;21.00;99.90;;;;;;5033396;28;19912;-83
2024/03/09 14:15:36;;;;;;;;;;;20.40;99.90;;;;;;5034300;28;19913;-83
2024/03/09 14:18:04;;;;;;;;;;;19.90;99.90;;;;;;5038498;28;19905;-84
2024/03/09 14:20:30;;;;;;;;;;;19.70;99.90;;;;;;5038662;28;19905;-83
2024/03/09 14:22:55;;;;;;;;;;;19.60;99.90;;;;;;5024579;28;19917;-83
2024/03/09 14:25:28;;;;;;;;;;;19.70;99.90;;;;;;5038140;28;19913;-83
2024/03/09 14:27:54;;;;;;;;;;;19.60;99.90;;;;;;5035571;28;19909;-84